sensor_id;sensor_type;location;lat;lon;timestamp;pressure;altitude;pressure_sealevel;temperature;humidity
56630;BME280;42502;40.732;-74.254;2023-08-06T00:00:05;100569.53;;;32.46;40.35
56630;BME280;42502;40.732;-74.254;2023-08-06T00:02:06;100575.69;;;32.44;40.31
56630;BME280;42502;40.732;-74.254;2023-08-06T00:04:06;100569.97;;;32.44;39.68
56630;BME280;42502;40.732;-74.254;2023-08-06T00:06:07;100572.84;;;32.44;39.98
56630;BME280;42502;40.732;-74.254;2023-08-06T00:08:08;100574.94;;;32.40;39.66
56630;BME280;42502;40.732;-74.254;2023-08-06T00:10:15;100576.13;;;32.42;39.63
56630;BME280;42502;40.732;-74.254;2023-08-06T00:12:16;100574.50;;;32.41;39.77
56630;BME280;42502;40.732;-74.254;2023-08-06T00:14:16;100571.66;;;32.41;39.51
56630;BME280;42502;40.732;-74.254;2023-08-06T00:16:17;100566.91;;;32.35;39.65
56630;BME280;42502;40.732;-74.254;2023-08-06T00:18:18;100566.38;;;32.40;39.37
56630;BME280;42502;40.732;-74.254;2023-08-06T00:20:19;100567.63;;;32.39;39.34
56630;BME280;42502;40.732;-74.254;2023-08-06T00:22:20;100572.53;;;32.38;39.38
56630;BME280;42502;40.732;-74.254;2023-08-06T00:24:21;100577.44;;;32.38;39.21
56630;BME280;42502;40.732;-74.254;2023-08-06T00:26:22;100560.00;;;32.32;39.12
56630;BME280;42502;40.732;-74.254;2023-08-06T00:28:24;100566.47;;;32.36;39.13
56630;BME280;42502;40.732;-74.254;2023-08-06T00:30:24;100570.56;;;32.35;38.69
56630;BME280;42502;40.732;-74.254;2023-08-06T00:32:25;100561.28;;;32.31;38.98
56630;BME280;42502;40.732;-74.254;2023-08-06T00:34:26;100575.56;;;32.31;38.65
56630;BME280;42502;40.732;-74.254;2023-08-06T00:36:27;100569.41;;;32.33;38.78
56630;BME280;42502;40.732;-74.254;2023-08-06T00:38:28;100573.84;;;32.34;39.09
56630;BME280;42502;40.732;-74.254;2023-08-06T00:40:28;100576.78;;;32.30;39.05
56630;BME280;42502;40.732;-74.254;2023-08-06T00:42:30;100579.22;;;32.32;38.49
56630;BME280;42502;40.732;-74.254;2023-08-06T00:44:31;100571.88;;;32.31;38.99
56630;BME280;42502;40.732;-74.254;2023-08-06T00:46:36;100566.25;;;32.27;38.64
56630;BME280;42502;40.732;-74.254;2023-08-06T00:48:37;100580.44;;;32.31;38.60
56630;BME280;42502;40.732;-74.254;2023-08-06T00:50:38;100572.31;;;32.29;38.61
56630;BME280;42502;40.732;-74.254;2023-08-06T00:52:38;100569.47;;;32.29;38.30
56630;BME280;42502;40.732;-74.254;2023-08-06T00:54:40;100565.44;;;32.27;38.32
56630;BME280;42502;40.732;-74.254;2023-08-06T00:56:42;100574.03;;;32.27;38.43
56630;BME280;42502;40.732;-74.254;2023-08-06T00:58:44;100576.06;;;32.26;38.34
56630;BME280;42502;40.732;-74.254;2023-08-06T01:00:48;100580.97;;;32.26;38.64
56630;BME280;42502;40.732;-74.254;2023-08-06T01:02:53;100576.56;;;32.21;38.52
56630;BME280;42502;40.732;-74.254;2023-08-06T01:04:54;100585.44;;;32.27;38.56
56630;BME280;42502;40.732;-74.254;2023-08-06T01:09:45;100590.78;;;32.24;38.37
56630;BME280;42502;40.732;-74.254;2023-08-06T01:12:06;100588.38;;;32.23;38.52
56630;BME280;42502;40.732;-74.254;2023-08-06T01:14:23;100586.75;;;32.22;38.51
56630;BME280;42502;40.732;-74.254;2023-08-06T01:16:28;100578.31;;;32.15;38.00
56630;BME280;42502;40.732;-74.254;2023-08-06T01:18:31;100586.75;;;32.22;37.79
56630;BME280;42502;40.732;-74.254;2023-08-06T01:20:37;100594.53;;;32.21;37.96
56630;BME280;42502;40.732;-74.254;2023-08-06T01:22:38;100592.09;;;32.20;37.64
56630;BME280;42502;40.732;-74.254;2023-08-06T01:24:40;100594.59;;;32.18;38.33
56630;BME280;42502;40.732;-74.254;2023-08-06T01:26:48;100591.75;;;32.18;37.99
56630;BME280;42502;40.732;-74.254;2023-08-06T01:29:12;100606.91;;;32.15;38.11
56630;BME280;42502;40.732;-74.254;2023-08-06T01:31:20;100604.41;;;32.17;38.13
56630;BME280;42502;40.732;-74.254;2023-08-06T01:33:22;100607.25;;;32.17;37.77
56630;BME280;42502;40.732;-74.254;2023-08-06T01:35:25;100593.84;;;32.14;37.41
56630;BME280;42502;40.732;-74.254;2023-08-06T01:37:28;100597.94;;;32.13;37.76
56630;BME280;42502;40.732;-74.254;2023-08-06T01:39:30;100602.06;;;32.12;37.77
56630;BME280;42502;40.732;-74.254;2023-08-06T01:41:33;100604.47;;;32.13;37.70
56630;BME280;42502;40.732;-74.254;2023-08-06T01:43:37;100604.94;;;32.12;37.69
56630;BME280;42502;40.732;-74.254;2023-08-06T01:45:37;100602.06;;;32.12;37.66
56630;BME280;42502;40.732;-74.254;2023-08-06T01:47:38;100602.50;;;32.10;37.40
56630;BME280;42502;40.732;-74.254;2023-08-06T01:49:39;100604.50;;;32.10;37.18
56630;BME280;42502;40.732;-74.254;2023-08-06T01:51:40;100591.97;;;32.03;37.30
56630;BME280;42502;40.732;-74.254;2023-08-06T01:53:41;100603.72;;;32.09;37.15
56630;BME280;42502;40.732;-74.254;2023-08-06T01:55:41;100593.94;;;32.06;37.33
56630;BME280;42502;40.732;-74.254;2023-08-06T01:57:42;100595.22;;;32.05;37.57
56630;BME280;42502;40.732;-74.254;2023-08-06T01:59:43;100600.94;;;32.05;37.27
56630;BME280;42502;40.732;-74.254;2023-08-06T02:01:44;100590.84;;;31.97;37.52
56630;BME280;42502;40.732;-74.254;2023-08-06T02:03:45;100609.09;;;32.03;37.35
56630;BME280;42502;40.732;-74.254;2023-08-06T02:05:46;100610.38;;;32.02;37.24
56630;BME280;42502;40.732;-74.254;2023-08-06T02:07:50;100599.38;;;32.01;37.04
56630;BME280;42502;40.732;-74.254;2023-08-06T02:09:51;100608.75;;;32.01;37.54
56630;BME280;42502;40.732;-74.254;2023-08-06T02:11:51;100599.44;;;31.97;37.06
56630;BME280;42502;40.732;-74.254;2023-08-06T02:13:52;100602.69;;;31.99;36.88
56630;BME280;42502;40.732;-74.254;2023-08-06T02:15:53;100599.81;;;31.99;36.97
56630;BME280;42502;40.732;-74.254;2023-08-06T02:17:54;100614.09;;;31.99;36.87
56630;BME280;42502;40.732;-74.254;2023-08-06T02:19:55;100604.72;;;31.99;37.30
56630;BME280;42502;40.732;-74.254;2023-08-06T02:21:56;100612.91;;;31.97;36.82
56630;BME280;42502;40.732;-74.254;2023-08-06T02:23:57;100611.69;;;31.98;37.08
56630;BME280;42502;40.732;-74.254;2023-08-06T02:25:59;100601.50;;;31.97;36.75
56630;BME280;42502;40.732;-74.254;2023-08-06T02:28:00;100612.13;;;31.96;37.06
56630;BME280;42502;40.732;-74.254;2023-08-06T02:30:02;100610.50;;;31.95;36.87
56630;BME280;42502;40.732;-74.254;2023-08-06T02:32:05;100619.44;;;31.97;37.02
56630;BME280;42502;40.732;-74.254;2023-08-06T02:34:09;100621.94;;;31.95;37.02
56630;BME280;42502;40.732;-74.254;2023-08-06T02:36:10;100628.06;;;31.94;37.09
56630;BME280;42502;40.732;-74.254;2023-08-06T02:38:14;100620.31;;;31.94;37.19
56630;BME280;42502;40.732;-74.254;2023-08-06T02:40:15;100618.72;;;31.93;36.79
56630;BME280;42502;40.732;-74.254;2023-08-06T02:42:16;100609.81;;;31.87;37.18
56630;BME280;42502;40.732;-74.254;2023-08-06T02:44:17;100619.94;;;31.92;37.20
56630;BME280;42502;40.732;-74.254;2023-08-06T02:46:17;100606.09;;;31.91;37.23
56630;BME280;42502;40.732;-74.254;2023-08-06T02:48:18;100609.38;;;31.89;37.26
56630;BME280;42502;40.732;-74.254;2023-08-06T02:50:19;100606.09;;;31.91;37.05
56630;BME280;42502;40.732;-74.254;2023-08-06T02:52:20;100603.66;;;31.89;36.89
56630;BME280;42502;40.732;-74.254;2023-08-06T02:54:21;100602.47;;;31.86;37.12
56630;BME280;42502;40.732;-74.254;2023-08-06T02:56:21;100602.47;;;31.86;36.68
56630;BME280;42502;40.732;-74.254;2023-08-06T02:58:22;100603.28;;;31.87;36.86
56630;BME280;42502;40.732;-74.254;2023-08-06T03:00:23;100607.75;;;31.88;37.05
56630;BME280;42502;40.732;-74.254;2023-08-06T03:02:24;100600.84;;;31.85;37.19
56630;BME280;42502;40.732;-74.254;2023-08-06T03:04:25;100600.13;;;31.81;37.14
56630;BME280;42502;40.732;-74.254;2023-08-06T03:06:26;100608.19;;;31.86;36.94
56630;BME280;42502;40.732;-74.254;2023-08-06T03:08:28;100608.19;;;31.86;37.34
56630;BME280;42502;40.732;-74.254;2023-08-06T03:10:29;100606.13;;;31.87;37.34
56630;BME280;42502;40.732;-74.254;2023-08-06T03:12:30;100603.28;;;31.87;37.54
56630;BME280;42502;40.732;-74.254;2023-08-06T03:14:31;100609.81;;;31.87;38.24
56630;BME280;42502;40.732;-74.254;2023-08-06T03:16:32;100603.66;;;31.89;38.06
56630;BME280;42502;40.732;-74.254;2023-08-06T03:18:33;100603.66;;;31.89;37.96
56630;BME280;42502;40.732;-74.254;2023-08-06T03:20:33;100617.94;;;31.89;38.17
56630;BME280;42502;40.732;-74.254;2023-08-06T03:22:34;100616.69;;;31.90;38.23
56630;BME280;42502;40.732;-74.254;2023-08-06T03:24:35;100613.03;;;31.89;38.18
56630;BME280;42502;40.732;-74.254;2023-08-06T03:26:36;100617.13;;;31.88;37.91
56630;BME280;42502;40.732;-74.254;2023-08-06T03:28:40;100622.84;;;31.88;38.05
56630;BME280;42502;40.732;-74.254;2023-08-06T03:30:40;100613.91;;;31.86;38.25
56630;BME280;42502;40.732;-74.254;2023-08-06T03:32:47;100621.25;;;31.87;38.43
56630;BME280;42502;40.732;-74.254;2023-08-06T03:34:51;100616.31;;;31.88;38.27
56630;BME280;42502;40.732;-74.254;2023-08-06T03:36:52;100616.31;;;31.88;37.81
56630;BME280;42502;40.732;-74.254;2023-08-06T03:38:53;100620.41;;;31.87;38.10
56630;BME280;42502;40.732;-74.254;2023-08-06T03:40:54;100620.84;;;31.85;38.13
56630;BME280;42502;40.732;-74.254;2023-08-06T03:42:55;100609.06;;;31.83;38.12
56630;BME280;42502;40.732;-74.254;2023-08-06T03:44:55;100617.19;;;31.85;38.01
56630;BME280;42502;40.732;-74.254;2023-08-06T03:46:56;100610.75;;;31.81;37.62
56630;BME280;42502;40.732;-74.254;2023-08-06T03:49:00;100625.41;;;31.83;37.81
56630;BME280;42502;40.732;-74.254;2023-08-06T03:51:01;100622.56;;;31.83;37.81
56630;BME280;42502;40.732;-74.254;2023-08-06T03:53:02;100615.22;;;31.82;37.37
56630;BME280;42502;40.732;-74.254;2023-08-06T03:55:03;100617.28;;;31.81;37.78
56630;BME280;42502;40.732;-74.254;2023-08-06T03:57:04;100614.84;;;31.80;37.32
56630;BME280;42502;40.732;-74.254;2023-08-06T03:59:05;100616.88;;;31.79;37.75
56630;BME280;42502;40.732;-74.254;2023-08-06T04:01:06;100621.00;;;31.78;37.40
56630;BME280;42502;40.732;-74.254;2023-08-06T04:03:07;100622.22;;;31.77;37.77
56630;BME280;42502;40.732;-74.254;2023-08-06T04:05:08;100612.47;;;31.75;37.58
56630;BME280;42502;40.732;-74.254;2023-08-06T04:07:09;100616.97;;;31.76;37.79
56630;BME280;42502;40.732;-74.254;2023-08-06T04:09:10;100615.34;;;31.75;37.22
56630;BME280;42502;40.732;-74.254;2023-08-06T04:11:10;100624.72;;;31.75;37.61
56630;BME280;42502;40.732;-74.254;2023-08-06T04:13:13;100619.44;;;31.74;37.71
56630;BME280;42502;40.732;-74.254;2023-08-06T04:15:14;100614.59;;;31.70;37.30
56630;BME280;42502;40.732;-74.254;2023-08-06T04:17:15;100610.13;;;31.69;37.51
56630;BME280;42502;40.732;-74.254;2023-08-06T04:19:15;100619.06;;;31.71;37.08
56630;BME280;42502;40.732;-74.254;2023-08-06T04:21:16;100623.97;;;31.71;37.51
56630;BME280;42502;40.732;-74.254;2023-08-06T04:23:17;100617.91;;;31.69;37.61
56630;BME280;42502;40.732;-74.254;2023-08-06T04:25:18;100620.34;;;31.67;37.08
56630;BME280;42502;40.732;-74.254;2023-08-06T04:27:21;100622.34;;;31.70;37.06
56630;BME280;42502;40.732;-74.254;2023-08-06T04:29:22;100617.50;;;31.67;37.40
56630;BME280;42502;40.732;-74.254;2023-08-06T04:31:23;100612.31;;;31.62;36.96
56630;BME280;42502;40.732;-74.254;2023-08-06T04:33:24;100617.16;;;31.65;37.37
56630;BME280;42502;40.732;-74.254;2023-08-06T04:35:24;100616.78;;;31.63;37.17
56630;BME280;42502;40.732;-74.254;2023-08-06T04:37:25;100624.91;;;31.64;37.08
56630;BME280;42502;40.732;-74.254;2023-08-06T04:39:26;100626.56;;;31.62;37.27
56630;BME280;42502;40.732;-74.254;2023-08-06T04:41:30;100627.38;;;31.62;37.26
56630;BME280;42502;40.732;-74.254;2023-08-06T04:43:31;100627.38;;;31.62;37.26
56630;BME280;42502;40.732;-74.254;2023-08-06T04:45:32;100626.56;;;31.62;37.26
56630;BME280;42502;40.732;-74.254;2023-08-06T04:47:32;100631.50;;;31.61;37.23
56630;BME280;42502;40.732;-74.254;2023-08-06T04:49:33;100631.91;;;31.60;37.36
56630;BME280;42502;40.732;-74.254;2023-08-06T04:51:34;100628.25;;;31.59;36.85
56630;BME280;42502;40.732;-74.254;2023-08-06T04:53:35;100630.31;;;31.59;36.93
56630;BME280;42502;40.732;-74.254;2023-08-06T04:55:36;100628.25;;;31.59;36.90
56630;BME280;42502;40.732;-74.254;2023-08-06T04:57:39;100632.31;;;31.58;37.24
56630;BME280;42502;40.732;-74.254;2023-08-06T04:59:40;100635.63;;;31.57;37.16
56630;BME280;42502;40.732;-74.254;2023-08-06T05:01:41;100639.72;;;31.56;36.92
56630;BME280;42502;40.732;-74.254;2023-08-06T05:03:42;100641.44;;;31.49;37.33
56630;BME280;42502;40.732;-74.254;2023-08-06T05:05:46;100639.81;;;31.48;37.33
56630;BME280;42502;40.732;-74.254;2023-08-06T05:07:49;100654.84;;;31.52;37.48
56630;BME280;42502;40.732;-74.254;2023-08-06T05:09:50;100643.09;;;31.47;36.88
56630;BME280;42502;40.732;-74.254;2023-08-06T05:11:51;100647.13;;;31.49;37.34
56630;BME280;42502;40.732;-74.254;2023-08-06T05:13:52;100644.66;;;31.51;37.40
56630;BME280;42502;40.732;-74.254;2023-08-06T05:15:55;100647.94;;;31.50;37.12
56630;BME280;42502;40.732;-74.254;2023-08-06T05:17:56;100643.47;;;31.49;36.81
56630;BME280;42502;40.732;-74.254;2023-08-06T05:20:03;100638.19;;;31.47;37.01
56630;BME280;42502;40.732;-74.254;2023-08-06T05:22:05;100647.56;;;31.48;37.40
56630;BME280;42502;40.732;-74.254;2023-08-06T05:24:08;100643.09;;;31.47;37.11
56630;BME280;42502;40.732;-74.254;2023-08-06T05:26:09;100643.53;;;31.45;36.85
56630;BME280;42502;40.732;-74.254;2023-08-06T05:28:10;100648.81;;;31.47;37.19
56630;BME280;42502;40.732;-74.254;2023-08-06T05:30:11;100641.47;;;31.46;37.24
56630;BME280;42502;40.732;-74.254;2023-08-06T05:32:12;100644.31;;;31.46;36.82
56630;BME280;42502;40.732;-74.254;2023-08-06T05:34:13;100643.97;;;31.44;36.90
56630;BME280;42502;40.732;-74.254;2023-08-06T05:36:14;100651.72;;;31.43;37.17
56630;BME280;42502;40.732;-74.254;2023-08-06T05:38:15;100649.31;;;31.42;37.00
56630;BME280;42502;40.732;-74.254;2023-08-06T05:40:17;100649.31;;;31.42;37.09
56630;BME280;42502;40.732;-74.254;2023-08-06T05:42:18;100655.44;;;31.40;37.12
56630;BME280;42502;40.732;-74.254;2023-08-06T05:44:19;100650.97;;;31.39;36.92
56630;BME280;42502;40.732;-74.254;2023-08-06T05:46:20;100653.38;;;31.41;36.81
56630;BME280;42502;40.732;-74.254;2023-08-06T05:48:21;100659.53;;;31.39;37.01
56630;BME280;42502;40.732;-74.254;2023-08-06T05:50:23;100667.28;;;31.39;37.27
56630;BME280;42502;40.732;-74.254;2023-08-06T05:52:24;100659.19;;;31.33;37.14
56630;BME280;42502;40.732;-74.254;2023-08-06T05:54:24;100662.03;;;31.33;36.84
56630;BME280;42502;40.732;-74.254;2023-08-06T05:56:25;100665.28;;;31.35;36.74
56630;BME280;42502;40.732;-74.254;2023-08-06T05:58:29;100663.66;;;31.34;36.72
56630;BME280;42502;40.732;-74.254;2023-08-06T06:00:30;100657.16;;;31.34;36.96
56630;BME280;42502;40.732;-74.254;2023-08-06T06:02:31;100663.66;;;31.34;36.69
56630;BME280;42502;40.732;-74.254;2023-08-06T06:04:32;100653.91;;;31.32;36.89
56630;BME280;42502;40.732;-74.254;2023-08-06T06:06:33;100662.47;;;31.32;36.98
56630;BME280;42502;40.732;-74.254;2023-08-06T06:08:36;100654.78;;;31.29;37.16
56630;BME280;42502;40.732;-74.254;2023-08-06T06:10:37;100661.28;;;31.29;37.16
56630;BME280;42502;40.732;-74.254;2023-08-06T06:12:38;100646.72;;;31.24;37.01
56630;BME280;42502;40.732;-74.254;2023-08-06T06:14:39;100658.06;;;31.27;36.71
56630;BME280;42502;40.732;-74.254;2023-08-06T06:16:40;100659.69;;;31.28;37.03
56630;BME280;42502;40.732;-74.254;2023-08-06T06:18:41;100654.84;;;31.25;37.28
56630;BME280;42502;40.732;-74.254;2023-08-06T06:20:42;100665.81;;;31.27;36.73
56630;BME280;42502;40.732;-74.254;2023-08-06T06:22:43;100661.34;;;31.26;36.84
56630;BME280;42502;40.732;-74.254;2023-08-06T06:24:43;100658.50;;;31.26;37.15
56630;BME280;42502;40.732;-74.254;2023-08-06T06:26:44;100662.56;;;31.25;37.08
56630;BME280;42502;40.732;-74.254;2023-08-06T06:28:45;100669.53;;;31.24;36.91
56630;BME280;42502;40.732;-74.254;2023-08-06T06:30:46;100657.34;;;31.20;36.87
56630;BME280;42502;40.732;-74.254;2023-08-06T06:32:47;100663.00;;;31.23;36.86
56630;BME280;42502;40.732;-74.254;2023-08-06T06:34:48;100665.06;;;31.23;36.70
56630;BME280;42502;40.732;-74.254;2023-08-06T06:36:48;100653.75;;;31.15;37.08
56630;BME280;42502;40.732;-74.254;2023-08-06T06:38:49;100662.63;;;31.21;36.90
56630;BME280;42502;40.732;-74.254;2023-08-06T06:40:56;100657.78;;;31.18;36.88
56630;BME280;42502;40.732;-74.254;2023-08-06T06:42:57;100664.28;;;31.18;36.74
56630;BME280;42502;40.732;-74.254;2023-08-06T06:44:58;100657.41;;;31.16;36.78
56630;BME280;42502;40.732;-74.254;2023-08-06T06:46:59;100652.50;;;31.16;36.59
56630;BME280;42502;40.732;-74.254;2023-08-06T06:49:00;100650.88;;;31.15;37.10
56630;BME280;42502;40.732;-74.254;2023-08-06T06:51:04;100653.75;;;31.15;37.13
56630;BME280;42502;40.732;-74.254;2023-08-06T06:53:05;100647.66;;;31.13;37.12
56630;BME280;42502;40.732;-74.254;2023-08-06T06:55:07;100649.72;;;31.13;37.02
56630;BME280;42502;40.732;-74.254;2023-08-06T06:57:10;100653.00;;;31.11;37.17
56630;BME280;42502;40.732;-74.254;2023-08-06T06:59:11;100653.78;;;31.12;36.66
56630;BME280;42502;40.732;-74.254;2023-08-06T07:01:12;100654.66;;;31.09;36.64
56630;BME280;42502;40.732;-74.254;2023-08-06T07:03:13;100666.44;;;31.11;36.75
56630;BME280;42502;40.732;-74.254;2023-08-06T07:05:14;100658.31;;;31.09;36.57
56630;BME280;42502;40.732;-74.254;2023-08-06T07:07:15;100659.13;;;31.10;36.63
56630;BME280;42502;40.732;-74.254;2023-08-06T07:09:15;100657.94;;;31.07;36.80
56630;BME280;42502;40.732;-74.254;2023-08-06T07:11:16;100660.00;;;31.07;37.01
56630;BME280;42502;40.732;-74.254;2023-08-06T07:13:17;100657.13;;;31.07;36.68
56630;BME280;42502;40.732;-74.254;2023-08-06T07:15:18;100665.69;;;31.07;36.55
56630;BME280;42502;40.732;-74.254;2023-08-06T07:17:19;100658.38;;;31.06;36.76
56630;BME280;42502;40.732;-74.254;2023-08-06T07:19:20;100658.38;;;31.06;36.59
56630;BME280;42502;40.732;-74.254;2023-08-06T07:21:21;100653.56;;;30.99;36.72
56630;BME280;42502;40.732;-74.254;2023-08-06T07:23:24;100651.09;;;30.97;36.88
56630;BME280;42502;40.732;-74.254;2023-08-06T07:25:25;100652.72;;;31.02;36.89
56630;BME280;42502;40.732;-74.254;2023-08-06T07:27:26;100658.84;;;31.00;37.07
56630;BME280;42502;40.732;-74.254;2023-08-06T07:29:27;100656.00;;;31.00;36.50
56630;BME280;42502;40.732;-74.254;2023-08-06T07:31:27;100658.03;;;31.00;36.50
56630;BME280;42502;40.732;-74.254;2023-08-06T07:33:28;100654.38;;;30.99;36.70
56630;BME280;42502;40.732;-74.254;2023-08-06T07:35:29;100662.94;;;30.99;36.77
56630;BME280;42502;40.732;-74.254;2023-08-06T07:37:30;100667.41;;;30.97;36.49
56630;BME280;42502;40.732;-74.254;2023-08-06T07:39:31;100676.75;;;30.97;36.72
56630;BME280;42502;40.732;-74.254;2023-08-06T07:41:32;100674.34;;;30.96;36.48
56630;BME280;42502;40.732;-74.254;2023-08-06T07:43:33;100676.41;;;30.95;36.52
56630;BME280;42502;40.732;-74.254;2023-08-06T07:45:35;100684.94;;;30.95;36.74
56630;BME280;42502;40.732;-74.254;2023-08-06T07:47:41;100676.81;;;30.94;36.42
56630;BME280;42502;40.732;-74.254;2023-08-06T07:49:43;100676.44;;;30.92;36.97
56630;BME280;42502;40.732;-74.254;2023-08-06T07:51:44;100680.09;;;30.92;36.49
56630;BME280;42502;40.732;-74.254;2023-08-06T07:53:45;100677.69;;;30.91;37.03
56630;BME280;42502;40.732;-74.254;2023-08-06T07:55:51;100682.59;;;30.90;36.45
56630;BME280;42502;40.732;-74.254;2023-08-06T07:57:53;100677.31;;;30.89;36.42
56630;BME280;42502;40.732;-74.254;2023-08-06T07:59:54;100687.88;;;30.88;36.37
56630;BME280;42502;40.732;-74.254;2023-08-06T08:01:55;100682.19;;;30.88;36.46
56630;BME280;42502;40.732;-74.254;2023-08-06T08:03:58;100686.28;;;30.87;36.41
56630;BME280;42502;40.732;-74.254;2023-08-06T08:05:59;100686.28;;;30.87;36.65
56630;BME280;42502;40.732;-74.254;2023-08-06T08:07:59;100686.28;;;30.87;36.37
56630;BME280;42502;40.732;-74.254;2023-08-06T08:10:00;100681.00;;;30.86;36.72
56630;BME280;42502;40.732;-74.254;2023-08-06T08:12:01;100678.16;;;30.86;36.91
56630;BME280;42502;40.732;-74.254;2023-08-06T08:14:03;100677.34;;;30.85;36.34
56630;BME280;42502;40.732;-74.254;2023-08-06T08:16:04;100680.63;;;30.83;36.35
56630;BME280;42502;40.732;-74.254;2023-08-06T08:18:05;100679.00;;;30.82;36.47
56630;BME280;42502;40.732;-74.254;2023-08-06T08:20:06;100681.03;;;30.82;36.46
56630;BME280;42502;40.732;-74.254;2023-08-06T08:22:07;100675.34;;;30.82;36.42
56630;BME280;42502;40.732;-74.254;2023-08-06T08:24:08;100690.84;;;30.81;36.29
56630;BME280;42502;40.732;-74.254;2023-08-06T08:26:09;100683.53;;;30.80;36.79
56630;BME280;42502;40.732;-74.254;2023-08-06T08:28:09;100679.88;;;30.79;36.76
56630;BME280;42502;40.732;-74.254;2023-08-06T08:30:10;100684.75;;;30.79;36.30
56630;BME280;42502;40.732;-74.254;2023-08-06T08:32:14;100682.31;;;30.77;36.45
56630;BME280;42502;40.732;-74.254;2023-08-06T08:34:16;100681.53;;;30.77;36.66
56630;BME280;42502;40.732;-74.254;2023-08-06T08:36:17;100680.31;;;30.74;36.95
56630;BME280;42502;40.732;-74.254;2023-08-06T08:38:18;100689.69;;;30.75;36.21
56630;BME280;42502;40.732;-74.254;2023-08-06T08:40:19;100681.56;;;30.73;36.56
56630;BME280;42502;40.732;-74.254;2023-08-06T08:42:21;100689.69;;;30.75;36.30
56630;BME280;42502;40.732;-74.254;2023-08-06T08:44:23;100692.97;;;30.73;36.79
56630;BME280;42502;40.732;-74.254;2023-08-06T08:46:29;100689.72;;;30.71;36.57
56630;BME280;42502;40.732;-74.254;2023-08-06T08:48:32;100692.97;;;30.73;36.70
56630;BME280;42502;40.732;-74.254;2023-08-06T08:50:33;100697.84;;;30.76;36.50
56630;BME280;42502;40.732;-74.254;2023-08-06T08:52:38;100698.69;;;30.73;36.70
56630;BME280;42502;40.732;-74.254;2023-08-06T08:54:41;100710.50;;;30.72;36.70
56630;BME280;42502;40.732;-74.254;2023-08-06T08:56:44;100706.03;;;30.71;36.63
56630;BME280;42502;40.732;-74.254;2023-08-06T08:58:45;100701.97;;;30.68;36.45
56630;BME280;42502;40.732;-74.254;2023-08-06T09:00:46;100695.13;;;30.62;36.73
56630;BME280;42502;40.732;-74.254;2023-08-06T09:02:49;100702.41;;;30.67;36.79
56630;BME280;42502;40.732;-74.254;2023-08-06T09:04:51;100702.84;;;30.65;36.62
56630;BME280;42502;40.732;-74.254;2023-08-06T09:06:54;100701.22;;;30.64;36.69
56630;BME280;42502;40.732;-74.254;2023-08-06T09:09:05;100706.09;;;30.63;36.74
56630;BME280;42502;40.732;-74.254;2023-08-06T09:11:09;100712.59;;;30.64;36.35
56630;BME280;42502;40.732;-74.254;2023-08-06T09:13:13;100706.53;;;30.62;36.64
56630;BME280;42502;40.732;-74.254;2023-08-06T09:15:14;100708.59;;;30.61;36.74
56630;BME280;42502;40.732;-74.254;2023-08-06T09:17:15;100713.03;;;30.62;36.76
56630;BME280;42502;40.732;-74.254;2023-08-06T09:19:23;100708.59;;;30.61;36.31
56630;BME280;42502;40.732;-74.254;2023-08-06T09:21:24;100704.09;;;30.60;36.16
56630;BME280;42502;40.732;-74.254;2023-08-06T09:23:31;100711.44;;;30.58;36.39
56630;BME280;42502;40.732;-74.254;2023-08-06T09:25:33;100713.50;;;30.57;36.38
56630;BME280;42502;40.732;-74.254;2023-08-06T09:27:36;100715.56;;;30.57;36.56
56630;BME280;42502;40.732;-74.254;2023-08-06T09:29:40;100704.56;;;30.55;36.72
56630;BME280;42502;40.732;-74.254;2023-08-06T09:31:42;100716.78;;;30.56;36.18
56630;BME280;42502;40.732;-74.254;2023-08-06T09:33:43;100707.44;;;30.52;36.35
56630;BME280;42502;40.732;-74.254;2023-08-06T09:35:48;100712.72;;;30.53;36.61
56630;BME280;42502;40.732;-74.254;2023-08-06T09:37:49;100712.72;;;30.53;36.56
56630;BME280;42502;40.732;-74.254;2023-08-06T09:39:50;100712.34;;;30.51;36.74
56630;BME280;42502;40.732;-74.254;2023-08-06T09:41:56;100720.91;;;30.51;36.65
56630;BME280;42502;40.732;-74.254;2023-08-06T09:43:58;100720.91;;;30.51;36.66
56630;BME280;42502;40.732;-74.254;2023-08-06T09:45:59;100727.03;;;30.50;36.23
56630;BME280;42502;40.732;-74.254;2023-08-06T09:48:03;100731.53;;;30.47;36.76
56630;BME280;42502;40.732;-74.254;2023-08-06T09:50:05;100732.78;;;30.46;36.48
56630;BME280;42502;40.732;-74.254;2023-08-06T09:52:12;100729.94;;;30.46;36.24
56630;BME280;42502;40.732;-74.254;2023-08-06T09:54:14;100729.09;;;30.45;36.31
56630;BME280;42502;40.732;-74.254;2023-08-06T09:56:17;100734.00;;;30.45;36.39
56630;BME280;42502;40.732;-74.254;2023-08-06T09:58:18;100726.66;;;30.44;36.52
56630;BME280;42502;40.732;-74.254;2023-08-06T10:00:22;100738.91;;;30.44;36.56
56630;BME280;42502;40.732;-74.254;2023-08-06T10:02:25;100738.06;;;30.44;36.19
56630;BME280;42502;40.732;-74.254;2023-08-06T10:04:29;100729.97;;;30.39;36.26
56630;BME280;42502;40.732;-74.254;2023-08-06T10:06:36;100730.38;;;30.41;36.57
56630;BME280;42502;40.732;-74.254;2023-08-06T10:08:49;100737.31;;;30.40;36.39
56630;BME280;42502;40.732;-74.254;2023-08-06T10:10:50;100734.03;;;30.41;36.63
56630;BME280;42502;40.732;-74.254;2023-08-06T10:12:52;100731.59;;;30.36;36.20
56630;BME280;42502;40.732;-74.254;2023-08-06T10:14:57;100739.72;;;30.38;36.26
56630;BME280;42502;40.732;-74.254;2023-08-06T10:17:00;100732.81;;;30.39;36.50
56630;BME280;42502;40.732;-74.254;2023-08-06T10:19:04;100734.03;;;30.38;36.41
56630;BME280;42502;40.732;-74.254;2023-08-06T10:21:08;100729.16;;;30.35;36.28
56630;BME280;42502;40.732;-74.254;2023-08-06T10:23:09;100722.66;;;30.34;36.53